Terminal Aerodrome Forecast
Issued by NWS Sterling, VA

Current Version | Previous Version | Text Only | Print | Product List | Glossary Off
Versions: 1 2 3 4 5 6 7 8 9 10 11 12 13 14 15 16 17 18 19 20 21 22

000
FTUS41 KLWX 271700
TAFIAD
TAF
KIAD 271730Z 2718/2824 32011G20KT P6SM FEW030 OVC050
     FM280000 32014G24KT P6SM BKN040
     FM280600 34011G18KT P6SM SCT200
     FM282200 32008KT P6SM FEW250=

USA.gov is the U.S. government's official web portal to all federal, state and local government web resources and services.